Seaspan Saigon — VRBT7 — position and weather

sailwx.info

Track history (hours):
 
Tides and Currents Weather Stations Pressure Air Temp Water Temp Dewpoint Dewpoint Depression Visibility Wind Speed Wind Dir Waves Ship Positions

Seaspan Saigon

Last reported at 2017-Jan-12 06:16 UTC. Time now 2017-Jan-19 10:44 UTC.
Position N 26°20' W 079°25'.

Length 260 m; draft 10.3 m.

Type: Ship (hazmat cat A). MMSI: 477106800.

Date/timePositionNaut miles runAvg speedWind from/ knotsBaromVisibWave heightAir tempDewpointWater temp
2017-Jan-12 06:16N 26°20' W 079°25'1217.2
2017-Jan-12 05:33N 26°07' W 079°26'1817.1
2017-Jan-12 04:32N 25°50' W 079°26'1717.1
2017-Jan-12 03:33N 25°33' W 079°28'  
2017-Jan-08 04:31N 29°25' W 094°49'1111.9
2017-Jan-08 03:34N 29°35' W 094°56'7 7.4
2017-Jan-08 02:34N 29°41' W 095°00'0 0.0
2017-Jan-08 01:28N 29°41' W 095°00'0 0.0
2017-Jan-08 00:19N 29°41' W 095°00'0 0.0
2017-Jan-07 23:31N 29°41' W 095°00'0 0.0
2017-Jan-07 22:31N 29°41' W 095°00'0 0.0
2017-Jan-07 21:31N 29°41' W 095°00'0 0.0
2017-Jan-07 20:31N 29°41' W 095°00'0 0.0
2017-Jan-07 19:31N 29°41' W 095°00'0 0.0
2017-Jan-07 18:31N 29°41' W 095°00'0 0.0
2017-Jan-07 17:31N 29°41' W 095°00'0 0.0
2017-Jan-07 16:31N 29°41' W 095°00'0 0.0
2017-Jan-07 15:34N 29°41' W 095°00'0 0.0
2017-Jan-07 14:33N 29°41' W 095°00'0 0.0
2017-Jan-07 13:30N 29°41' W 095°00'0 0.0
2017-Jan-07 12:33N 29°41' W 095°00'0 0.0
2017-Jan-07 11:33N 29°41' W 095°00'0 0.0
2017-Jan-07 10:30N 29°41' W 095°00'0 0.0
2017-Jan-07 09:09N 29°41' W 095°00'0 0.0
2017-Jan-07 08:30N 29°41' W 095°00'0 0.0
2017-Jan-07 07:33N 29°41' W 095°00'0 0.0
2017-Jan-07 06:33N 29°41' W 095°00'0 0.0
2017-Jan-07 04:33N 29°41' W 095°00'0 0.0
2017-Jan-07 03:33N 29°41' W 095°00'0 0.0
2017-Jan-07 02:30N 29°41' W 095°00'0 0.0
2017-Jan-07 01:30N 29°41' W 095°00'0 0.0
2017-Jan-07 00:24N 29°41' W 095°00'0 0.0
2017-Jan-06 23:34N 29°41' W 095°00'5 4.5
2017-Jan-06 22:33N 29°37' W 094°57'1312.6
2017-Jan-06 21:33N 29°26' W 094°50'1312.8
2017-Jan-06 20:32N 29°19' W 094°38'  
2017-Jan-04 04:34N 19°41' W 096°06'1313.1
2017-Jan-04 03:34N 19°29' W 095°59'1313.1
2017-Jan-04 02:33N 19°16' W 095°57'10 9.6
2017-Jan-04 01:33N 19°12' W 096°06'2 1.6
2017-Jan-04 00:32N 19°13' W 096°08'0 0.0
2017-Jan-03 23:32N 19°13' W 096°08'0 0.0
2017-Jan-03 22:32N 19°13' W 096°08'0 0.0
2017-Jan-03 21:32N 19°13' W 096°08'0 0.0
2017-Jan-03 20:32N 19°13' W 096°08'0 0.0
2017-Jan-03 19:29N 19°13' W 096°08'0 0.0
2017-Jan-03 18:32N 19°13' W 096°08'0 0.0
2017-Jan-03 17:32N 19°13' W 096°08'0 0.0
2017-Jan-03 16:32N 19°13' W 096°08'0 0.0
2017-Jan-03 15:32N 19°13' W 096°08'0 0.0
2017-Jan-03 14:32N 19°13' W 096°08'0 0.0
2017-Jan-03 13:29N 19°13' W 096°08'1 0.6
2017-Jan-03 12:33N 19°12' W 096°08'7 6.5
2017-Jan-03 11:33N 19°13' W 096°01'8 7.9
2017-Jan-03 10:32N 19°14' W 095°52'1111.5
2017-Jan-03 09:33N 19°14' W 095°41'1717.0
2017-Jan-03 08:33N 19°19' W 095°23'  
Track history (hours):
 
Tides and Currents Weather Stations Pressure Air Temp Water Temp Dewpoint Dewpoint Depression Visibility Wind Speed Wind Dir Waves Ship Positions

Seaspan Saigon

Last reported at 2017-Jan-12 06:16 UTC. Time now 2017-Jan-19 10:44 UTC.
Position N 26°20' W 079°25'.

Length 260 m; draft 10.3 m.

Type: Ship (hazmat cat A). MMSI: 477106800.

Date/timePositionNaut miles runAvg speedWind from/ knotsBaromVisibWave heightAir tempDewpointWater temp
2017-Jan-12 06:16N 26°20' W 079°25'1217.2
2017-Jan-12 05:33N 26°07' W 079°26'1817.1
2017-Jan-12 04:32N 25°50' W 079°26'1717.1
2017-Jan-12 03:33N 25°33' W 079°28'  
2017-Jan-08 04:31N 29°25' W 094°49'1111.9
2017-Jan-08 03:34N 29°35' W 094°56'7 7.4
2017-Jan-08 02:34N 29°41' W 095°00'0 0.0
2017-Jan-08 01:28N 29°41' W 095°00'0 0.0
2017-Jan-08 00:19N 29°41' W 095°00'0 0.0
2017-Jan-07 23:31N 29°41' W 095°00'0 0.0
2017-Jan-07 22:31N 29°41' W 095°00'0 0.0
2017-Jan-07 21:31N 29°41' W 095°00'0 0.0
2017-Jan-07 20:31N 29°41' W 095°00'0 0.0
2017-Jan-07 19:31N 29°41' W 095°00'0 0.0
2017-Jan-07 18:31N 29°41' W 095°00'0 0.0
2017-Jan-07 17:31N 29°41' W 095°00'0 0.0
2017-Jan-07 16:31N 29°41' W 095°00'0 0.0
2017-Jan-07 15:34N 29°41' W 095°00'0 0.0
2017-Jan-07 14:33N 29°41' W 095°00'0 0.0
2017-Jan-07 13:30N 29°41' W 095°00'0 0.0
2017-Jan-07 12:33N 29°41' W 095°00'0 0.0
2017-Jan-07 11:33N 29°41' W 095°00'0 0.0
2017-Jan-07 10:30N 29°41' W 095°00'0 0.0
2017-Jan-07 09:09N 29°41' W 095°00'0 0.0
2017-Jan-07 08:30N 29°41' W 095°00'0 0.0
2017-Jan-07 07:33N 29°41' W 095°00'0 0.0
2017-Jan-07 06:33N 29°41' W 095°00'0 0.0
2017-Jan-07 04:33N 29°41' W 095°00'0 0.0
2017-Jan-07 03:33N 29°41' W 095°00'0 0.0
2017-Jan-07 02:30N 29°41' W 095°00'0 0.0
2017-Jan-07 01:30N 29°41' W 095°00'0 0.0
2017-Jan-07 00:24N 29°41' W 095°00'0 0.0
2017-Jan-06 23:34N 29°41' W 095°00'5 4.5
2017-Jan-06 22:33N 29°37' W 094°57'1312.6
2017-Jan-06 21:33N 29°26' W 094°50'1312.8
2017-Jan-06 20:32N 29°19' W 094°38'  
2017-Jan-04 04:34N 19°41' W 096°06'1313.1
2017-Jan-04 03:34N 19°29' W 095°59'1313.1
2017-Jan-04 02:33N 19°16' W 095°57'10 9.6
2017-Jan-04 01:33N 19°12' W 096°06'2 1.6
2017-Jan-04 00:32N 19°13' W 096°08'0 0.0
2017-Jan-03 23:32N 19°13' W 096°08'0 0.0
2017-Jan-03 22:32N 19°13' W 096°08'0 0.0
2017-Jan-03 21:32N 19°13' W 096°08'0 0.0
2017-Jan-03 20:32N 19°13' W 096°08'0 0.0
2017-Jan-03 19:29N 19°13' W 096°08'0 0.0
2017-Jan-03 18:32N 19°13' W 096°08'0 0.0
2017-Jan-03 17:32N 19°13' W 096°08'0 0.0
2017-Jan-03 16:32N 19°13' W 096°08'0 0.0
2017-Jan-03 15:32N 19°13' W 096°08'0 0.0
2017-Jan-03 14:32N 19°13' W 096°08'0 0.0
2017-Jan-03 13:29N 19°13' W 096°08'1 0.6
2017-Jan-03 12:33N 19°12' W 096°08'7 6.5
2017-Jan-03 11:33N 19°13' W 096°01'8 7.9
2017-Jan-03 10:32N 19°14' W 095°52'1111.5
2017-Jan-03 09:33N 19°14' W 095°41'1717.0
2017-Jan-03 08:33N 19°19' W 095°23'  

Dump ship's entire track history